Latest Coastal Weather Observations for Montague Island

IDN60701

Issued at 4:21 am EST Tuesday 31 May 2016 (issued every 10 minutes, with the page automatically refreshed every 10 minutes)

About coastal observations | Map of coastal stations | Coastal observations for NSW | Marine services | Other Formats
Station Details ID: 069017 Name: MONTAGUE ISLAND LIGHTHOUSE Lat: -36.25 Lon: 150.23 Height: 52.0 m
Data from the previous 72 hours. | See also: Recent months at Montague Island
Date/Time
EST
Temp

°C
Wind Pressure Rain
since 9am
mm
Weather Cloud Vis
km
Sea
Height
m
Swell
Dir
 
Speed
knots
Gust
knots
hPa Trend Height
m
Period
s
Dir
31/04:00am 12.9 SW 12 16 1028.4 - 0.0 - - - - - - -
31/03:30am 12.7 SW 12 17 1028.3 - 0.0 - - - - - - -
31/03:00am 13.1 SSW 11 16 1028.3 - 0.0 - - - - - - -
31/02:30am 12.9 SW 12 15 1028.3 - 0.0 - - - - - - -
31/02:00am 12.9 SW 12 17 1028.2 - 0.0 - - - - - - -
31/01:30am 13.0 SW 12 17 1028.3 - 0.0 - - - - - - -
31/01:00am 13.1 SW 12 17 1028.4 - 0.0 - - - - - - -
31/12:30am 13.1 SW 11 16 1028.4 - 0.0 - - - - - - -
31/12:00am 13.3 SW 11 14 1028.4 - 0.0 - - - - - - -
 
Date/Time
EST
Temp

°C
Wind Pressure Rain
since 9am
mm
Weather Cloud Vis
km
Sea
Height
m
Swell
Dir
 
Speed
knots
Gust
knots
hPa Trend Height
m
Period
s
Dir
30/11:30pm 13.2 SSW 11 14 1028.3 - 0.0 - - - - - - -
30/11:00pm 13.2 SW 11 14 1028.3 - 0.0 - - - - - - -
30/10:30pm 13.2 SW 11 15 1028.2 - 0.0 - - - - - - -
30/10:00pm 13.6 SW 11 16 1028.2 - 0.0 - - - - - - -
30/09:30pm 14.1 S 11 14 1028.0 - 0.0 - - - - - - -
30/09:00pm 14.1 SSW 11 13 1027.7 - 0.0 - - - - - - -
30/08:30pm 14.3 S 11 14 1027.5 - 0.0 - - - - - - -
30/08:00pm 14.9 SSE 13 17 1027.4 - 0.0 - - - - - - -
30/07:30pm 14.6 S 11 16 1027.2 - 0.0 - - - - - - -
30/07:00pm 14.8 SSE 12 19 1026.9 - 0.0 - - - - - - -
30/06:30pm 14.9 SSE 13 18 1026.6 - 0.0 - - - - - - -
30/06:00pm 14.8 SSE 12 19 1026.3 - 0.0 - - - - - - -
30/05:30pm 14.8 SSE 12 18 1026.0 - 0.0 - - - - - - -
30/05:00pm 14.8 S 11 15 1025.6 - 0.0 - - - - - - -
30/04:30pm 15.0 SSE 14 19 1025.2 - 0.0 - - - - - - -
30/04:00pm 15.0 SSE 12 17 1025.1 - 0.0 - - - - - - -
30/03:30pm 15.1 SSE 12 17 1024.8 - 0.0 - - - - - - -
30/03:00pm 15.4 S 11 15 1024.6 - 0.0 - - - - - - -
30/02:30pm 15.6 S 11 13 1024.4 - 0.0 - - - - - - -
30/02:00pm 15.8 S 11 13 1024.3 - 0.0 - - - - - - -
30/01:30pm 15.9 S 11 14 1024.2 - 0.0 - - - - - - -
30/01:00pm 16.2 SSW 10 13 1024.3 - 0.0 - - - - - - -
30/12:30pm 15.9 SSW 11 17 1024.3 - 0.0 - - - - - - -
30/12:00pm 15.8 SSW 11 16 1024.4 - 0.0 - - - - - - -
30/11:30am 15.4 SSW 11 15 1024.7 - 0.0 - - - - - - -
30/11:00am 14.9 SSW 11 17 1025.1 - 0.0 - - - - - - -
30/10:30am 15.3 SW 15 22 1025.2 - 0.0 - - - - - - -
30/10:00am 14.8 SW 15 20 1025.2 - 0.0 - - - - - - -
30/09:30am 14.8 SW 11 17 1025.2 - 0.0 - - - - - - -
30/09:00am 13.7 WSW 8 10 1024.9 - 0.0 - - - - - - -
30/08:30am 12.9 W 10 12 1024.7 - 0.0 - - - - - - -
30/08:00am 12.0 W 10 13 1024.3 - 0.0 - - - - - - -
30/07:30am 11.1 W 9 12 1023.8 - 0.0 - - - - - - -
30/07:00am 10.9 W 8 10 1023.5 - 0.0 - - - - - - -
30/06:30am 10.8 W 7 10 1023.1 - 0.0 - - - - - - -
30/06:00am 11.0 W 8 10 1022.6 - 0.0 - - - - - - -
30/05:30am 11.0 WNW 8 11 1022.3 - 0.0 - - - - - - -
30/05:00am 11.7 W 9 12 1021.8 - 0.0 - - - - - - -
30/04:30am 11.6 W 10 13 1021.5 - 0.0 - - - - - - -
30/04:00am 11.4 W 10 12 1021.4 - 0.0 - - - - - - -
30/03:30am 11.4 W 10 13 1021.2 - 0.0 - - - - - - -
30/03:00am 10.8 W 10 13 1021.1 - 0.0 - - - - - - -
30/02:30am 10.9 W 9 11 1021.1 - 0.0 - - - - - - -
30/02:00am 11.1 WNW 8 11 1021.1 - 0.0 - - - - - - -
30/01:30am 11.3 WNW 8 10 1021.0 - 0.0 - - - - - - -
30/01:00am 11.4 WNW 9 11 1020.7 - 0.0 - - - - - - -
30/12:30am 12.5 WSW 13 17 1020.6 - 0.0 - - - - - - -
30/12:00am 11.8 W 11 15 1020.7 - 0.0 - - - - - - -
 
Date/Time
EST
Temp

°C
Wind Pressure Rain
since 9am
mm
Weather Cloud Vis
km
Sea
Height
m
Swell
Dir
 
Speed
knots
Gust
knots
hPa Trend Height
m
Period
s
Dir
29/11:30pm 12.5 W 10 12 1020.7 - 0.0 - - - - - - -
29/11:00pm 13.1 WSW 17 21 1020.4 - 0.0 - - - - - - -
29/10:30pm 13.3 SW 16 22 1020.3 - 0.0 - - - - - - -
29/10:00pm 13.5 SW 17 23 1020.0 - 0.0 - - - - - - -
29/09:30pm 13.7 SW 16 22 1019.7 - 0.0 - - - - - - -
29/09:00pm 13.4 SW 13 18 1019.4 - 0.0 - - - - - - -
29/08:30pm 13.7 SW 14 20 1019.0 - 0.0 - - - - - - -
29/08:00pm 14.1 SW 16 25 1018.7 - 0.0 - - - - - - -
29/07:30pm 14.5 SW 18 24 1018.4 - 0.0 - - - - - - -
29/07:11pm 14.5 SSW 18 29 1018.1 - 0.0 - - - - - - -
29/07:00pm 14.4 SSW 17 26 1017.9 - 0.0 - - - - - - -
29/06:30pm 14.4 SSW 15 18 1017.7 - 0.0 - - - - - - -
29/06:00pm 14.8 SSW 14 17 1017.3 - 0.0 - - - - - - -
29/05:30pm 15.2 SSW 12 16 1017.1 - 0.0 - - - - - - -
29/05:00pm 15.6 SSW 13 19 1016.6 - 0.0 - - - - - - -
29/04:30pm 15.8 SSW 12 18 1016.1 - 0.0 - - - - - - -
29/04:00pm 16.2 SW 16 23 1015.7 - 0.0 - - - - - - -
29/03:30pm 16.5 SSW 11 17 1015.7 - 0.0 - - - - - - -
29/03:00pm 16.9 SW 12 17 1015.5 - 0.0 - - - - - - -
29/02:30pm 17.0 SW 11 15 1015.2 - 0.0 - - - - - - -
29/02:00pm 16.5 SSW 11 17 1014.9 - 0.0 - - - - - - -
29/01:30pm 16.8 SW 13 19 1014.7 - 0.0 - - - - - - -
29/01:00pm 17.2 SW 11 15 1015.0 - 0.0 - - - - - - -
29/12:30pm 16.8 SW 12 18 1015.1 - 0.0 - - - - - - -
29/12:00pm 17.0 SW 13 17 1015.3 - 0.0 - - - - - - -
29/11:30am 16.4 SW 8 13 1015.5 - 0.0 - - - - - - -
29/11:00am 16.2 W 6 10 1015.7 - 0.0 - - - - - - -
29/10:30am 15.6 W 8 12 1015.7 - 0.0 - - - - - - -
29/10:00am 15.1 WNW 9 11 1015.5 - 0.0 - - - - - - -
29/09:30am 14.4 WNW 10 16 1015.2 - 0.0 - - - - - - -
29/09:00am 13.8 WNW 11 16 1015.0 - 1.0 - - - - - - -
29/08:30am 13.6 WNW 11 17 1014.8 - 1.0 - - - - - - -
29/08:00am 12.9 W 8 14 1014.5 - 1.0 - - - - - - -
29/07:30am 12.7 W 11 16 1014.2 - 1.0 - - - - - - -
29/07:00am 12.0 W 12 15 1013.8 - 1.0 - - - - - - -
29/06:30am 11.9 W 10 13 1013.7 - 1.0 - - - - - - -
29/06:00am 11.8 W 12 15 1013.6 - 1.0 - - - - - - -
29/05:30am 12.1 W 11 14 1013.3 - 1.0 - - - - - - -
29/05:00am 11.9 W 13 17 1013.0 - 1.0 - - - - - - -
29/04:30am 12.1 W 12 16 1012.9 - 1.0 - - - - - - -
29/04:00am 11.8 W 10 13 1012.6 - 1.0 - - - - - - -
29/03:30am 11.9 W 10 14 1012.4 - 1.0 - - - - - - -
29/03:00am 11.8 WNW 8 11 1012.3 - 1.0 - - - - - - -
29/02:30am 11.8 W 9 12 1012.2 - 1.0 - - - - - - -
29/02:00am 12.1 WSW 11 15 1012.1 - 1.0 - - - - - - -
29/01:30am 12.3 WSW 15 20 1011.8 - 1.0 - - - - - - -
29/01:00am 12.3 WSW 12 16 1011.6 - 1.0 - - - - - - -
29/12:30am 12.2 W 11 15 1011.6 - 1.0 - - - - - - -
29/12:00am 12.6 WSW 14 17 1011.3 - 1.0 - - - - - - -
 
Date/Time
EST
Temp

°C
Wind Pressure Rain
since 9am
mm
Weather Cloud Vis
km
Sea
Height
m
Swell
Dir
 
Speed
knots
Gust
knots
hPa Trend Height
m
Period
s
Dir
28/11:30pm 12.5 SW 13 17 1011.3 - 1.0 - - - - - - -
28/11:00pm 12.4 SW 14 16 1011.2 - 1.0 - - - - - - -
28/10:30pm 12.6 SW 12 15 1011.0 - 1.0 - - - - - - -
28/10:00pm 13.0 SW 12 16 1010.8 - 1.0 - - - - - - -
28/09:30pm 13.0 SW 12 15 1010.8 - 1.0 - - - - - - -
28/09:00pm 12.9 SW 12 17 1010.8 - 1.0 - - - - - - -
28/08:30pm 12.9 WSW 12 16 1010.5 - 1.0 - - - - - - -
28/08:00pm 12.8 WSW 12 15 1010.2 - 1.0 - - - - - - -
28/07:30pm 13.2 SW 14 19 1009.8 - 1.0 - - - - - - -
28/07:00pm 13.3 SW 14 19 1009.3 - 1.0 - - - - - - -
28/06:30pm 13.2 SW 15 19 1008.8 - 1.0 - - - - - - -
28/06:00pm 13.2 SW 14 20 1008.3 - 1.0 - - - - - - -
28/05:30pm 13.2 SW 14 21 1007.7 - 1.0 - - - - - - -
28/05:00pm 13.2 SW 15 20 1007.3 - 1.0 - - - - - - -
28/04:30pm 13.2 SW 19 24 1006.8 - 1.0 - - - - - - -
28/04:00pm 13.4 WSW 18 23 1006.5 - 1.0 - - - - - - -
28/03:30pm 12.7 WSW 15 21 1006.1 - 1.0 - - - - - - -
28/03:00pm 12.2 WSW 14 19 1005.8 - 1.0 Recent precip. - - - - - -
28/02:30pm 11.8 WSW 14 18 1005.6 - 0.8 - - - - - - -
28/02:00pm 11.6 WSW 20 25 1005.5 - 0.4 - - - - - - -
28/01:30pm 13.0 SW 19 26 1005.2 - 0.0 - - - - - - -
28/01:00pm 13.4 SW 18 26 1005.1 - 0.0 - - - - - - -
28/12:30pm 13.9 SW 21 28 1005.0 - 0.0 - - - - - - -
28/12:00pm 14.8 SW 19 26 1004.7 - 0.0 - - - - - - -
28/11:30am 14.9 SSW 15 23 1004.9 - 0.0 - - - - - - -
28/11:00am 15.1 SSW 10 14 1005.5 - 0.0 - - - - - - -
28/10:30am 15.2 SW 13 18 1005.7 - 0.0 - - - - - - -
28/10:00am 15.0 SW 13 19 1005.7 - 0.0 - - - - - - -
28/09:30am 13.4 WSW 10 15 1005.9 - 0.0 - - - - - - -
28/09:00am 13.4 W 9 11 1005.8 - 0.0 - - - - - - -
28/08:30am 12.7 W 9 12 1005.9 - 0.0 - - - - - - -
28/08:00am 12.6 W 9 12 1005.9 - 0.0 - - - - - - -
28/07:30am 11.8 W 11 13 1005.8 - 0.0 - - - - - - -
28/07:00am 12.0 W 13 17 1005.8 - 0.0 - - - - - - -
28/06:30am 11.8 W 12 16 1005.6 - 0.0 - - - - - - -
28/06:00am 11.8 WNW 10 18 1005.5 - 0.0 - - - - - - -
28/05:30am 12.2 W 10 14 1005.3 - 0.0 - - - - - - -
28/05:00am 12.4 W 9 12 1005.1 - 0.0 - - - - - - -
28/04:30am 12.2 W 9 11 1005.0 - 0.0 - - - - - - -

Other Formats:

Comma delimited format used in spreadsheet applications
http://www.bom.gov.au/fwo/IDN60701/IDN60701.94939.axf

JavaScript Object Notation format (JSON) in row-major order
http://www.bom.gov.au/fwo/IDN60701/IDN60701.94939.json